Glassell Park, California
Current Conditions -  °F | °C
As of 9:47 PM on Saturday 22 Nov 2014 (Local Time) from KCQT Reporting Station
Clear Clear  
Wind Chill: 61°   Ceiling: Unl
Heat Index: 61°   Visibility: 10mi
Dew Point: 53°   Wind: 3mph
Humidity: 75%   Direction: 90°E
Pressure: 30.03"   Gusts: NA
Location:  34.1092°N, 118.228°W
Report Text: KCQT 230547Z AUTO 09003KT 10SM CLR 16/12 A3003 RMK AO2 SLP168 T01610117 10200 20161 50008
Loading
Personal Weather Stations






























Interactive Weather Map New forecast layout! Learn more

10-Day Weather Forecast

Advertisements
Track Severe Weather on mobile